sensor_id;sensor_type;location;lat;lon;timestamp;P1;durP1;ratioP1;P2;durP2;ratioP2
35562;SDS011;21665;40.108;18.302;2023-01-19T19:55:36;16.67;;;12.68;;
35562;SDS011;21665;40.108;18.302;2023-01-19T19:58:19;18.73;;;14.88;;
35562;SDS011;21665;40.108;18.302;2023-01-19T20:00:46;45.08;;;27.05;;
35562;SDS011;21665;40.108;18.302;2023-01-19T20:03:12;36.90;;;22.23;;
35562;SDS011;21665;40.108;18.302;2023-01-19T20:05:39;48.60;;;27.88;;
35562;SDS011;21665;40.108;18.302;2023-01-19T20:08:05;33.55;;;22.90;;
35562;SDS011;21665;40.108;18.302;2023-01-19T20:10:32;39.30;;;23.27;;
35562;SDS011;21665;40.108;18.302;2023-01-19T20:12:59;38.63;;;23.00;;
35562;SDS011;21665;40.108;18.302;2023-01-19T20:15:25;27.10;;;16.85;;
35562;SDS011;21665;40.108;18.302;2023-01-19T20:17:52;18.92;;;13.95;;
35562;SDS011;21665;40.108;18.302;2023-01-19T20:20:21;25.40;;;15.10;;
35562;SDS011;21665;40.108;18.302;2023-01-19T20:22:49;26.35;;;16.73;;
35562;SDS011;21665;40.108;18.302;2023-01-19T20:25:16;25.60;;;16.50;;
35562;SDS011;21665;40.108;18.302;2023-01-19T20:27:42;27.75;;;17.48;;
35562;SDS011;21665;40.108;18.302;2023-01-19T20:30:18;33.53;;;18.75;;
35562;SDS011;21665;40.108;18.302;2023-01-19T20:32:45;33.22;;;18.65;;
35562;SDS011;21665;40.108;18.302;2023-01-19T20:35:18;63.28;;;31.67;;
35562;SDS011;21665;40.108;18.302;2023-01-19T20:37:45;69.20;;;34.83;;
35562;SDS011;21665;40.108;18.302;2023-01-19T20:40:15;57.53;;;30.52;;
35562;SDS011;21665;40.108;18.302;2023-01-19T20:42:42;41.90;;;23.63;;
35562;SDS011;21665;40.108;18.302;2023-01-19T20:45:09;20.98;;;15.60;;
35562;SDS011;21665;40.108;18.302;2023-01-19T20:47:36;26.15;;;16.70;;
35562;SDS011;21665;40.108;18.302;2023-01-19T20:50:03;37.35;;;23.10;;
35562;SDS011;21665;40.108;18.302;2023-01-19T20:52:31;21.10;;;14.77;;
35562;SDS011;21665;40.108;18.302;2023-01-19T20:55:00;27.83;;;14.68;;
35562;SDS011;21665;40.108;18.302;2023-01-19T20:57:27;25.90;;;15.13;;
35562;SDS011;21665;40.108;18.302;2023-01-19T20:59:53;22.45;;;14.75;;
35562;SDS011;21665;40.108;18.302;2023-01-19T21:02:23;23.42;;;14.68;;
35562;SDS011;21665;40.108;18.302;2023-01-19T21:04:51;20.55;;;12.70;;
35562;SDS011;21665;40.108;18.302;2023-01-19T21:07:19;22.00;;;13.57;;
35562;SDS011;21665;40.108;18.302;2023-01-19T21:09:52;17.88;;;12.55;;
35562;SDS011;21665;40.108;18.302;2023-01-19T21:12:21;13.40;;;11.02;;
35562;SDS011;21665;40.108;18.302;2023-01-19T21:14:48;17.75;;;11.90;;
35562;SDS011;21665;40.108;18.302;2023-01-19T21:17:15;18.70;;;11.02;;
35562;SDS011;21665;40.108;18.302;2023-01-19T21:19:41;18.67;;;10.57;;
35562;SDS011;21665;40.108;18.302;2023-01-19T21:22:10;15.30;;;10.25;;
35562;SDS011;21665;40.108;18.302;2023-01-19T21:24:37;19.13;;;10.45;;
35562;SDS011;21665;40.108;18.302;2023-01-19T21:27:03;17.77;;;9.70;;
35562;SDS011;21665;40.108;18.302;2023-01-19T21:29:30;11.60;;;9.15;;
35562;SDS011;21665;40.108;18.302;2023-01-19T21:31:56;15.65;;;9.43;;
35562;SDS011;21665;40.108;18.302;2023-01-19T21:34:23;15.32;;;9.80;;
35562;SDS011;21665;40.108;18.302;2023-01-19T21:36:50;15.23;;;10.57;;
35562;SDS011;21665;40.108;18.302;2023-01-19T21:39:17;14.43;;;9.52;;
35562;SDS011;21665;40.108;18.302;2023-01-19T21:41:44;15.68;;;10.48;;
35562;SDS011;21665;40.108;18.302;2023-01-19T21:44:11;19.23;;;10.27;;
35562;SDS011;21665;40.108;18.302;2023-01-19T21:46:38;21.63;;;10.68;;
35562;SDS011;21665;40.108;18.302;2023-01-19T21:49:05;13.80;;;9.20;;
35562;SDS011;21665;40.108;18.302;2023-01-19T21:51:46;14.48;;;8.27;;
35562;SDS011;21665;40.108;18.302;2023-01-19T21:54:15;17.23;;;9.18;;
35562;SDS011;21665;40.108;18.302;2023-01-19T21:56:42;16.88;;;10.07;;
35562;SDS011;21665;40.108;18.302;2023-01-19T21:59:10;12.40;;;8.77;;
35562;SDS011;21665;40.108;18.302;2023-01-19T22:01:48;19.67;;;9.40;;
35562;SDS011;21665;40.108;18.302;2023-01-19T22:04:14;13.95;;;9.65;;
35562;SDS011;21665;40.108;18.302;2023-01-19T22:06:41;12.02;;;7.50;;
35562;SDS011;21665;40.108;18.302;2023-01-19T22:09:08;9.68;;;7.72;;
35562;SDS011;21665;40.108;18.302;2023-01-19T22:11:34;15.32;;;8.05;;
35562;SDS011;21665;40.108;18.302;2023-01-19T22:14:01;13.82;;;7.40;;
35562;SDS011;21665;40.108;18.302;2023-01-19T22:16:28;11.70;;;7.65;;
35562;SDS011;21665;40.108;18.302;2023-01-19T22:19:04;13.10;;;7.88;;
35562;SDS011;21665;40.108;18.302;2023-01-19T22:21:33;12.48;;;7.75;;
35562;SDS011;21665;40.108;18.302;2023-01-19T22:24:01;17.75;;;8.57;;
35562;SDS011;21665;40.108;18.302;2023-01-19T22:26:29;11.40;;;8.90;;
35562;SDS011;21665;40.108;18.302;2023-01-19T22:28:59;17.92;;;9.40;;
35562;SDS011;21665;40.108;18.302;2023-01-19T22:31:27;15.02;;;9.07;;
35562;SDS011;21665;40.108;18.302;2023-01-19T22:33:54;15.80;;;10.65;;
35562;SDS011;21665;40.108;18.302;2023-01-19T22:36:25;16.75;;;10.30;;
35562;SDS011;21665;40.108;18.302;2023-01-19T22:38:55;16.50;;;10.30;;
35562;SDS011;21665;40.108;18.302;2023-01-19T22:41:34;12.98;;;9.18;;
35562;SDS011;21665;40.108;18.302;2023-01-19T22:44:04;17.17;;;10.20;;
35562;SDS011;21665;40.108;18.302;2023-01-19T22:46:41;12.30;;;8.70;;
35562;SDS011;21665;40.108;18.302;2023-01-19T22:49:09;12.30;;;8.98;;
35562;SDS011;21665;40.108;18.302;2023-01-19T22:51:39;12.75;;;9.25;;
35562;SDS011;21665;40.108;18.302;2023-01-19T22:54:06;14.60;;;8.48;;
35562;SDS011;21665;40.108;18.302;2023-01-19T22:56:46;13.25;;;9.73;;
35562;SDS011;21665;40.108;18.302;2023-01-19T22:59:13;15.35;;;9.45;;
35562;SDS011;21665;40.108;18.302;2023-01-19T23:01:41;15.27;;;9.80;;
35562;SDS011;21665;40.108;18.302;2023-01-19T23:04:10;14.20;;;9.50;;
35562;SDS011;21665;40.108;18.302;2023-01-19T23:06:39;17.00;;;9.75;;
35562;SDS011;21665;40.108;18.302;2023-01-19T23:09:09;16.27;;;10.25;;
35562;SDS011;21665;40.108;18.302;2023-01-19T23:11:44;13.88;;;10.02;;
35562;SDS011;21665;40.108;18.302;2023-01-19T23:14:17;16.73;;;10.00;;
35562;SDS011;21665;40.108;18.302;2023-01-19T23:16:46;18.83;;;10.20;;
35562;SDS011;21665;40.108;18.302;2023-01-19T23:19:13;16.08;;;11.23;;
35562;SDS011;21665;40.108;18.302;2023-01-19T23:21:41;14.63;;;10.65;;
35562;SDS011;21665;40.108;18.302;2023-01-19T23:24:09;19.95;;;11.40;;
35562;SDS011;21665;40.108;18.302;2023-01-19T23:26:39;19.05;;;10.70;;
35562;SDS011;21665;40.108;18.302;2023-01-19T23:29:07;20.42;;;12.43;;
35562;SDS011;21665;40.108;18.302;2023-01-19T23:31:37;22.17;;;11.35;;
35562;SDS011;21665;40.108;18.302;2023-01-19T23:34:08;18.08;;;11.75;;
35562;SDS011;21665;40.108;18.302;2023-01-19T23:36:37;29.38;;;13.25;;
35562;SDS011;21665;40.108;18.302;2023-01-19T23:39:17;16.77;;;11.45;;
35562;SDS011;21665;40.108;18.302;2023-01-19T23:41:46;14.65;;;11.07;;
35562;SDS011;21665;40.108;18.302;2023-01-19T23:44:13;19.73;;;12.05;;
35562;SDS011;21665;40.108;18.302;2023-01-19T23:46:40;14.18;;;11.18;;
35562;SDS011;21665;40.108;18.302;2023-01-19T23:49:09;23.05;;;12.32;;
35562;SDS011;21665;40.108;18.302;2023-01-19T23:51:37;21.65;;;13.82;;
35562;SDS011;21665;40.108;18.302;2023-01-19T23:54:05;21.73;;;12.43;;
35562;SDS011;21665;40.108;18.302;2023-01-19T23:56:32;17.27;;;11.38;;
35562;SDS011;21665;40.108;18.302;2023-01-19T23:59:01;17.73;;;11.15;;
